sensor_id;sensor_type;location;lat;lon;timestamp;P1;durP1;ratioP1;P2;durP2;ratioP2
44147;SDS011;29810;55.848;37.368;2023-02-03T00:01:45;37.03;;;22.02;;
44147;SDS011;29810;55.848;37.368;2023-02-03T00:04:47;36.65;;;22.17;;
44147;SDS011;29810;55.848;37.368;2023-02-03T00:07:49;36.53;;;23.12;;
44147;SDS011;29810;55.848;37.368;2023-02-03T00:10:51;37.15;;;22.40;;
44147;SDS011;29810;55.848;37.368;2023-02-03T00:13:53;37.83;;;22.15;;
44147;SDS011;29810;55.848;37.368;2023-02-03T00:16:54;35.42;;;23.05;;
44147;SDS011;29810;55.848;37.368;2023-02-03T00:19:55;37.58;;;22.87;;
44147;SDS011;29810;55.848;37.368;2023-02-03T00:23:04;34.85;;;21.90;;
44147;SDS011;29810;55.848;37.368;2023-02-03T00:26:10;37.05;;;23.20;;
44147;SDS011;29810;55.848;37.368;2023-02-03T00:29:14;37.92;;;23.23;;
44147;SDS011;29810;55.848;37.368;2023-02-03T00:32:17;36.22;;;22.80;;
44147;SDS011;29810;55.848;37.368;2023-02-03T00:35:19;36.78;;;22.40;;
44147;SDS011;29810;55.848;37.368;2023-02-03T00:38:20;36.33;;;22.27;;
44147;SDS011;29810;55.848;37.368;2023-02-03T00:41:26;37.42;;;22.87;;
44147;SDS011;29810;55.848;37.368;2023-02-03T00:44:29;36.53;;;22.60;;
44147;SDS011;29810;55.848;37.368;2023-02-03T00:47:31;36.58;;;22.30;;
44147;SDS011;29810;55.848;37.368;2023-02-03T00:50:32;38.20;;;23.35;;
44147;SDS011;29810;55.848;37.368;2023-02-03T00:53:34;37.90;;;22.67;;
44147;SDS011;29810;55.848;37.368;2023-02-03T00:56:36;38.28;;;22.02;;
44147;SDS011;29810;55.848;37.368;2023-02-03T00:59:37;32.40;;;21.42;;
44147;SDS011;29810;55.848;37.368;2023-02-03T01:02:39;37.13;;;22.70;;
44147;SDS011;29810;55.848;37.368;2023-02-03T01:05:40;36.35;;;22.87;;
44147;SDS011;29810;55.848;37.368;2023-02-03T01:08:42;36.05;;;22.85;;
44147;SDS011;29810;55.848;37.368;2023-02-03T01:11:44;34.40;;;22.40;;
44147;SDS011;29810;55.848;37.368;2023-02-03T01:14:48;36.65;;;23.02;;
44147;SDS011;29810;55.848;37.368;2023-02-03T01:17:50;35.47;;;22.52;;
44147;SDS011;29810;55.848;37.368;2023-02-03T01:20:51;36.13;;;23.15;;
44147;SDS011;29810;55.848;37.368;2023-02-03T01:23:53;38.05;;;23.10;;
44147;SDS011;29810;55.848;37.368;2023-02-03T01:26:55;34.83;;;22.35;;
44147;SDS011;29810;55.848;37.368;2023-02-03T01:29:57;34.10;;;21.98;;
44147;SDS011;29810;55.848;37.368;2023-02-03T01:32:58;37.58;;;22.73;;
44147;SDS011;29810;55.848;37.368;2023-02-03T01:36:00;35.67;;;22.20;;
44147;SDS011;29810;55.848;37.368;2023-02-03T01:39:02;37.35;;;23.20;;
44147;SDS011;29810;55.848;37.368;2023-02-03T01:45:43;36.90;;;22.02;;
44147;SDS011;29810;55.848;37.368;2023-02-03T01:48:46;35.30;;;21.75;;
44147;SDS011;29810;55.848;37.368;2023-02-03T01:51:48;37.97;;;23.20;;
44147;SDS011;29810;55.848;37.368;2023-02-03T01:54:50;35.53;;;22.02;;
44147;SDS011;29810;55.848;37.368;2023-02-03T01:57:55;35.80;;;22.70;;
44147;SDS011;29810;55.848;37.368;2023-02-03T02:01:05;36.63;;;23.40;;
44147;SDS011;29810;55.848;37.368;2023-02-03T02:04:07;37.38;;;22.58;;
44147;SDS011;29810;55.848;37.368;2023-02-03T02:07:09;36.70;;;22.83;;
44147;SDS011;29810;55.848;37.368;2023-02-03T02:10:13;38.00;;;23.35;;
44147;SDS011;29810;55.848;37.368;2023-02-03T02:13:16;40.40;;;23.08;;
44147;SDS011;29810;55.848;37.368;2023-02-03T02:23:18;40.00;;;23.35;;
44147;SDS011;29810;55.848;37.368;2023-02-03T02:33:51;39.85;;;23.45;;
44147;SDS011;29810;55.848;37.368;2023-02-03T02:47:04;41.17;;;23.65;;
44147;SDS011;29810;55.848;37.368;2023-02-03T02:50:15;41.42;;;24.02;;
44147;SDS011;29810;55.848;37.368;2023-02-03T02:53:24;35.80;;;21.70;;
44147;SDS011;29810;55.848;37.368;2023-02-03T02:56:33;41.08;;;23.73;;
44147;SDS011;29810;55.848;37.368;2023-02-03T02:59:36;41.15;;;23.77;;
44147;SDS011;29810;55.848;37.368;2023-02-03T03:02:38;41.05;;;23.33;;
44147;SDS011;29810;55.848;37.368;2023-02-03T03:05:40;39.63;;;22.25;;
44147;SDS011;29810;55.848;37.368;2023-02-03T03:08:58;38.50;;;22.60;;
44147;SDS011;29810;55.848;37.368;2023-02-03T03:15:19;39.22;;;23.02;;
44147;SDS011;29810;55.848;37.368;2023-02-03T03:18:26;38.13;;;23.10;;
44147;SDS011;29810;55.848;37.368;2023-02-03T03:21:33;41.15;;;22.92;;
44147;SDS011;29810;55.848;37.368;2023-02-03T03:24:51;42.17;;;23.05;;
44147;SDS011;29810;55.848;37.368;2023-02-03T03:28:00;40.20;;;22.27;;
44147;SDS011;29810;55.848;37.368;2023-02-03T03:31:06;40.15;;;22.85;;
44147;SDS011;29810;55.848;37.368;2023-02-03T03:34:08;39.70;;;22.65;;
44147;SDS011;29810;55.848;37.368;2023-02-03T03:40:28;39.38;;;22.75;;
44147;SDS011;29810;55.848;37.368;2023-02-03T03:43:34;38.38;;;22.75;;
44147;SDS011;29810;55.848;37.368;2023-02-03T03:46:44;34.20;;;21.55;;
44147;SDS011;29810;55.848;37.368;2023-02-03T03:49:50;37.25;;;21.48;;
44147;SDS011;29810;55.848;37.368;2023-02-03T03:52:54;37.20;;;21.55;;
44147;SDS011;29810;55.848;37.368;2023-02-03T03:55:59;35.63;;;21.60;;
44147;SDS011;29810;55.848;37.368;2023-02-03T03:59:03;40.15;;;23.20;;
44147;SDS011;29810;55.848;37.368;2023-02-03T04:02:09;36.90;;;21.65;;
44147;SDS011;29810;55.848;37.368;2023-02-03T04:05:13;40.55;;;23.23;;
44147;SDS011;29810;55.848;37.368;2023-02-03T04:08:15;38.47;;;22.77;;
44147;SDS011;29810;55.848;37.368;2023-02-03T04:11:17;37.05;;;22.23;;
44147;SDS011;29810;55.848;37.368;2023-02-03T04:14:37;41.72;;;22.62;;
44147;SDS011;29810;55.848;37.368;2023-02-03T04:17:38;38.67;;;22.73;;
44147;SDS011;29810;55.848;37.368;2023-02-03T04:20:40;37.90;;;22.35;;
44147;SDS011;29810;55.848;37.368;2023-02-03T04:23:42;33.15;;;20.30;;
44147;SDS011;29810;55.848;37.368;2023-02-03T04:26:44;32.92;;;19.33;;
44147;SDS011;29810;55.848;37.368;2023-02-03T04:29:47;32.88;;;21.02;;
44147;SDS011;29810;55.848;37.368;2023-02-03T04:33:06;35.45;;;20.75;;
44147;SDS011;29810;55.848;37.368;2023-02-03T04:36:07;33.90;;;20.88;;
44147;SDS011;29810;55.848;37.368;2023-02-03T04:39:09;33.55;;;21.05;;
44147;SDS011;29810;55.848;37.368;2023-02-03T04:42:14;33.20;;;20.70;;
44147;SDS011;29810;55.848;37.368;2023-02-03T04:45:24;34.80;;;20.83;;
44147;SDS011;29810;55.848;37.368;2023-02-03T04:48:26;33.30;;;19.95;;
44147;SDS011;29810;55.848;37.368;2023-02-03T04:51:28;34.40;;;20.10;;
44147;SDS011;29810;55.848;37.368;2023-02-03T04:54:29;33.78;;;20.62;;
44147;SDS011;29810;55.848;37.368;2023-02-03T04:57:31;34.55;;;20.90;;
44147;SDS011;29810;55.848;37.368;2023-02-03T05:00:32;31.85;;;20.73;;
44147;SDS011;29810;55.848;37.368;2023-02-03T05:03:34;35.83;;;21.77;;
44147;SDS011;29810;55.848;37.368;2023-02-03T05:06:36;33.90;;;21.60;;
44147;SDS011;29810;55.848;37.368;2023-02-03T05:09:37;32.70;;;20.88;;
44147;SDS011;29810;55.848;37.368;2023-02-03T05:12:39;33.78;;;21.30;;
44147;SDS011;29810;55.848;37.368;2023-02-03T05:15:40;36.10;;;21.80;;
44147;SDS011;29810;55.848;37.368;2023-02-03T05:18:42;34.50;;;21.20;;
44147;SDS011;29810;55.848;37.368;2023-02-03T05:21:44;34.53;;;20.60;;
44147;SDS011;29810;55.848;37.368;2023-02-03T05:24:45;34.72;;;20.37;;
44147;SDS011;29810;55.848;37.368;2023-02-03T05:27:47;35.83;;;21.62;;
44147;SDS011;29810;55.848;37.368;2023-02-03T05:30:48;33.78;;;20.50;;
44147;SDS011;29810;55.848;37.368;2023-02-03T05:33:50;33.45;;;19.80;;
44147;SDS011;29810;55.848;37.368;2023-02-03T05:36:52;30.98;;;20.00;;
44147;SDS011;29810;55.848;37.368;2023-02-03T05:39:53;30.00;;;19.20;;
44147;SDS011;29810;55.848;37.368;2023-02-03T05:43:15;32.15;;;18.92;;
44147;SDS011;29810;55.848;37.368;2023-02-03T05:46:16;28.50;;;18.23;;
44147;SDS011;29810;55.848;37.368;2023-02-03T05:49:18;29.98;;;19.25;;
44147;SDS011;29810;55.848;37.368;2023-02-03T05:52:19;28.48;;;17.85;;
44147;SDS011;29810;55.848;37.368;2023-02-03T05:55:21;31.23;;;18.90;;
44147;SDS011;29810;55.848;37.368;2023-02-03T05:58:22;31.20;;;19.15;;
44147;SDS011;29810;55.848;37.368;2023-02-03T06:01:24;28.60;;;18.37;;
44147;SDS011;29810;55.848;37.368;2023-02-03T06:04:26;29.17;;;18.60;;
44147;SDS011;29810;55.848;37.368;2023-02-03T06:07:27;29.55;;;18.02;;
44147;SDS011;29810;55.848;37.368;2023-02-03T06:10:29;32.25;;;18.77;;
44147;SDS011;29810;55.848;37.368;2023-02-03T06:13:30;28.20;;;18.42;;
44147;SDS011;29810;55.848;37.368;2023-02-03T06:16:32;29.05;;;18.30;;
44147;SDS011;29810;55.848;37.368;2023-02-03T06:19:33;28.77;;;18.15;;
44147;SDS011;29810;55.848;37.368;2023-02-03T06:22:35;32.03;;;18.77;;
44147;SDS011;29810;55.848;37.368;2023-02-03T06:25:37;26.85;;;17.10;;
44147;SDS011;29810;55.848;37.368;2023-02-03T06:28:39;29.02;;;18.08;;
44147;SDS011;29810;55.848;37.368;2023-02-03T06:31:40;30.05;;;18.62;;
44147;SDS011;29810;55.848;37.368;2023-02-03T06:34:42;27.92;;;18.58;;
44147;SDS011;29810;55.848;37.368;2023-02-03T06:37:43;27.55;;;18.00;;
44147;SDS011;29810;55.848;37.368;2023-02-03T06:40:45;27.02;;;18.25;;
44147;SDS011;29810;55.848;37.368;2023-02-03T06:43:47;28.50;;;18.08;;
44147;SDS011;29810;55.848;37.368;2023-02-03T06:46:49;27.33;;;18.05;;
44147;SDS011;29810;55.848;37.368;2023-02-03T06:49:50;28.05;;;18.27;;
44147;SDS011;29810;55.848;37.368;2023-02-03T06:52:52;27.73;;;17.92;;
44147;SDS011;29810;55.848;37.368;2023-02-03T06:55:53;26.50;;;17.58;;
44147;SDS011;29810;55.848;37.368;2023-02-03T06:58:55;29.80;;;18.42;;
44147;SDS011;29810;55.848;37.368;2023-02-03T07:02:00;26.67;;;17.58;;
44147;SDS011;29810;55.848;37.368;2023-02-03T07:05:01;29.87;;;17.50;;
44147;SDS011;29810;55.848;37.368;2023-02-03T07:08:04;29.00;;;18.35;;
44147;SDS011;29810;55.848;37.368;2023-02-03T07:11:06;26.75;;;17.20;;
44147;SDS011;29810;55.848;37.368;2023-02-03T07:14:07;28.67;;;19.42;;
44147;SDS011;29810;55.848;37.368;2023-02-03T07:17:09;26.73;;;17.98;;
44147;SDS011;29810;55.848;37.368;2023-02-03T07:20:10;27.48;;;18.73;;
44147;SDS011;29810;55.848;37.368;2023-02-03T07:23:12;28.42;;;17.77;;
44147;SDS011;29810;55.848;37.368;2023-02-03T07:26:14;28.62;;;17.48;;
44147;SDS011;29810;55.848;37.368;2023-02-03T07:29:17;29.98;;;17.95;;
44147;SDS011;29810;55.848;37.368;2023-02-03T07:32:19;29.23;;;18.23;;
44147;SDS011;29810;55.848;37.368;2023-02-03T07:35:21;28.38;;;18.37;;
44147;SDS011;29810;55.848;37.368;2023-02-03T07:38:22;30.12;;;18.70;;
44147;SDS011;29810;55.848;37.368;2023-02-03T07:41:25;27.70;;;18.35;;
44147;SDS011;29810;55.848;37.368;2023-02-03T07:44:26;28.58;;;17.48;;
44147;SDS011;29810;55.848;37.368;2023-02-03T07:47:28;29.95;;;18.50;;
44147;SDS011;29810;55.848;37.368;2023-02-03T07:50:30;27.42;;;17.80;;
44147;SDS011;29810;55.848;37.368;2023-02-03T07:53:33;27.23;;;17.17;;
44147;SDS011;29810;55.848;37.368;2023-02-03T07:56:35;25.02;;;15.85;;
44147;SDS011;29810;55.848;37.368;2023-02-03T07:59:37;27.30;;;16.67;;
44147;SDS011;29810;55.848;37.368;2023-02-03T08:02:39;27.23;;;16.30;;
44147;SDS011;29810;55.848;37.368;2023-02-03T08:05:41;26.08;;;16.65;;
44147;SDS011;29810;55.848;37.368;2023-02-03T08:08:43;23.17;;;16.12;;
44147;SDS011;29810;55.848;37.368;2023-02-03T08:11:45;24.35;;;15.88;;
44147;SDS011;29810;55.848;37.368;2023-02-03T08:14:46;26.42;;;16.42;;
44147;SDS011;29810;55.848;37.368;2023-02-03T08:17:48;25.02;;;16.12;;
44147;SDS011;29810;55.848;37.368;2023-02-03T08:20:50;25.85;;;16.00;;
44147;SDS011;29810;55.848;37.368;2023-02-03T08:23:52;27.08;;;15.90;;
44147;SDS011;29810;55.848;37.368;2023-02-03T08:26:53;23.02;;;15.43;;
44147;SDS011;29810;55.848;37.368;2023-02-03T08:29:55;26.55;;;15.05;;
44147;SDS011;29810;55.848;37.368;2023-02-03T08:32:57;23.45;;;14.68;;
44147;SDS011;29810;55.848;37.368;2023-02-03T08:35:58;24.17;;;14.98;;
44147;SDS011;29810;55.848;37.368;2023-02-03T08:39:01;23.17;;;15.25;;
44147;SDS011;29810;55.848;37.368;2023-02-03T08:42:03;25.12;;;15.07;;
44147;SDS011;29810;55.848;37.368;2023-02-03T08:45:04;23.42;;;14.50;;
44147;SDS011;29810;55.848;37.368;2023-02-03T08:48:07;21.40;;;14.87;;
44147;SDS011;29810;55.848;37.368;2023-02-03T08:51:12;21.58;;;14.50;;
44147;SDS011;29810;55.848;37.368;2023-02-03T08:57:16;23.85;;;14.85;;
44147;SDS011;29810;55.848;37.368;2023-02-03T09:00:17;22.65;;;14.95;;
44147;SDS011;29810;55.848;37.368;2023-02-03T09:03:19;24.08;;;15.43;;
44147;SDS011;29810;55.848;37.368;2023-02-03T09:06:21;23.90;;;15.77;;
44147;SDS011;29810;55.848;37.368;2023-02-03T09:09:23;23.55;;;14.60;;
44147;SDS011;29810;55.848;37.368;2023-02-03T09:12:26;22.98;;;15.15;;
44147;SDS011;29810;55.848;37.368;2023-02-03T09:15:28;26.25;;;15.80;;
44147;SDS011;29810;55.848;37.368;2023-02-03T09:18:29;24.92;;;15.73;;
44147;SDS011;29810;55.848;37.368;2023-02-03T09:21:31;24.27;;;15.40;;
44147;SDS011;29810;55.848;37.368;2023-02-03T09:24:33;24.40;;;16.50;;
44147;SDS011;29810;55.848;37.368;2023-02-03T09:27:34;23.67;;;15.88;;
44147;SDS011;29810;55.848;37.368;2023-02-03T09:30:36;23.62;;;15.93;;
44147;SDS011;29810;55.848;37.368;2023-02-03T09:33:38;24.63;;;15.88;;
44147;SDS011;29810;55.848;37.368;2023-02-03T09:36:40;24.98;;;17.00;;
44147;SDS011;29810;55.848;37.368;2023-02-03T09:39:41;26.87;;;17.37;;
44147;SDS011;29810;55.848;37.368;2023-02-03T09:42:49;27.52;;;18.48;;
44147;SDS011;29810;55.848;37.368;2023-02-03T09:46:15;26.30;;;16.17;;
44147;SDS011;29810;55.848;37.368;2023-02-03T09:49:57;27.87;;;17.40;;
44147;SDS011;29810;55.848;37.368;2023-02-03T09:53:06;26.20;;;16.98;;
44147;SDS011;29810;55.848;37.368;2023-02-03T09:56:28;24.35;;;15.70;;
44147;SDS011;29810;55.848;37.368;2023-02-03T09:59:32;26.65;;;16.70;;
44147;SDS011;29810;55.848;37.368;2023-02-03T10:22:58;24.85;;;15.30;;
44147;SDS011;29810;55.848;37.368;2023-02-03T10:26:06;22.80;;;14.90;;
44147;SDS011;29810;55.848;37.368;2023-02-03T10:29:17;22.67;;;15.07;;
44147;SDS011;29810;55.848;37.368;2023-02-03T10:32:22;21.08;;;13.98;;
44147;SDS011;29810;55.848;37.368;2023-02-03T10:35:36;21.77;;;14.45;;
44147;SDS011;29810;55.848;37.368;2023-02-03T10:38:58;20.37;;;14.27;;
44147;SDS011;29810;55.848;37.368;2023-02-03T10:42:07;22.42;;;14.63;;
44147;SDS011;29810;55.848;37.368;2023-02-03T10:45:11;19.95;;;14.55;;
44147;SDS011;29810;55.848;37.368;2023-02-03T10:48:14;23.58;;;14.25;;
44147;SDS011;29810;55.848;37.368;2023-02-03T10:54:33;23.23;;;15.05;;
44147;SDS011;29810;55.848;37.368;2023-02-03T10:57:38;20.75;;;13.60;;
44147;SDS011;29810;55.848;37.368;2023-02-03T11:00:39;19.70;;;14.32;;
44147;SDS011;29810;55.848;37.368;2023-02-03T11:03:55;20.17;;;13.70;;
44147;SDS011;29810;55.848;37.368;2023-02-03T11:06:59;20.17;;;14.07;;
44147;SDS011;29810;55.848;37.368;2023-02-03T11:10:02;21.48;;;14.02;;
44147;SDS011;29810;55.848;37.368;2023-02-03T11:13:17;19.30;;;13.68;;
44147;SDS011;29810;55.848;37.368;2023-02-03T11:19:24;20.02;;;13.25;;
44147;SDS011;29810;55.848;37.368;2023-02-03T11:22:27;18.80;;;13.38;;
44147;SDS011;29810;55.848;37.368;2023-02-03T11:25:35;20.60;;;14.07;;
44147;SDS011;29810;55.848;37.368;2023-02-03T11:28:39;21.77;;;14.32;;
44147;SDS011;29810;55.848;37.368;2023-02-03T11:31:45;20.62;;;14.00;;
44147;SDS011;29810;55.848;37.368;2023-02-03T11:34:59;19.85;;;13.85;;
44147;SDS011;29810;55.848;37.368;2023-02-03T11:38:08;21.35;;;13.82;;
44147;SDS011;29810;55.848;37.368;2023-02-03T11:41:31;22.17;;;14.73;;
44147;SDS011;29810;55.848;37.368;2023-02-03T11:44:37;24.05;;;15.25;;
44147;SDS011;29810;55.848;37.368;2023-02-03T11:51:02;21.52;;;15.90;;
44147;SDS011;29810;55.848;37.368;2023-02-03T12:11:14;23.30;;;15.98;;
44147;SDS011;29810;55.848;37.368;2023-02-03T12:17:43;22.60;;;14.43;;
44147;SDS011;29810;55.848;37.368;2023-02-03T12:34:27;21.92;;;14.00;;
44147;SDS011;29810;55.848;37.368;2023-02-03T12:37:44;21.08;;;13.20;;
44147;SDS011;29810;55.848;37.368;2023-02-03T12:40:51;21.23;;;14.27;;
44147;SDS011;29810;55.848;37.368;2023-02-03T12:43:58;21.90;;;13.85;;
44147;SDS011;29810;55.848;37.368;2023-02-03T12:47:15;21.15;;;13.50;;
44147;SDS011;29810;55.848;37.368;2023-02-03T12:50:29;19.42;;;13.80;;
44147;SDS011;29810;55.848;37.368;2023-02-03T12:54:07;21.20;;;13.15;;
44147;SDS011;29810;55.848;37.368;2023-02-03T12:57:14;20.55;;;12.57;;
44147;SDS011;29810;55.848;37.368;2023-02-03T13:07:00;17.17;;;11.75;;
44147;SDS011;29810;55.848;37.368;2023-02-03T13:10:23;18.85;;;12.35;;
44147;SDS011;29810;55.848;37.368;2023-02-03T13:13:38;19.10;;;12.48;;
44147;SDS011;29810;55.848;37.368;2023-02-03T13:16:47;19.73;;;12.63;;
44147;SDS011;29810;55.848;37.368;2023-02-03T13:20:01;20.60;;;13.77;;
44147;SDS011;29810;55.848;37.368;2023-02-03T13:23:12;20.30;;;13.07;;
44147;SDS011;29810;55.848;37.368;2023-02-03T13:33:03;17.42;;;11.98;;
44147;SDS011;29810;55.848;37.368;2023-02-03T13:43:43;19.90;;;13.80;;
44147;SDS011;29810;55.848;37.368;2023-02-03T13:46:48;20.85;;;13.23;;
44147;SDS011;29810;55.848;37.368;2023-02-03T13:49:57;19.10;;;13.38;;
44147;SDS011;29810;55.848;37.368;2023-02-03T13:53:04;19.90;;;13.62;;
44147;SDS011;29810;55.848;37.368;2023-02-03T13:56:29;20.85;;;14.00;;
44147;SDS011;29810;55.848;37.368;2023-02-03T14:02:50;18.17;;;12.98;;
44147;SDS011;29810;55.848;37.368;2023-02-03T14:05:56;21.75;;;13.68;;
44147;SDS011;29810;55.848;37.368;2023-02-03T14:09:01;22.17;;;14.48;;
44147;SDS011;29810;55.848;37.368;2023-02-03T14:12:20;18.62;;;12.75;;
44147;SDS011;29810;55.848;37.368;2023-02-03T14:15:32;18.87;;;13.18;;
44147;SDS011;29810;55.848;37.368;2023-02-03T14:18:43;20.15;;;13.30;;
44147;SDS011;29810;55.848;37.368;2023-02-03T14:22:00;16.45;;;12.55;;
44147;SDS011;29810;55.848;37.368;2023-02-03T14:25:05;19.12;;;12.88;;
44147;SDS011;29810;55.848;37.368;2023-02-03T14:28:08;20.27;;;12.93;;
44147;SDS011;29810;55.848;37.368;2023-02-03T14:31:17;19.90;;;12.77;;
44147;SDS011;29810;55.848;37.368;2023-02-03T14:34:52;17.98;;;11.70;;
44147;SDS011;29810;55.848;37.368;2023-02-03T14:37:56;22.52;;;13.45;;
44147;SDS011;29810;55.848;37.368;2023-02-03T14:41:09;20.45;;;13.35;;
44147;SDS011;29810;55.848;37.368;2023-02-03T14:57:50;21.50;;;13.25;;
44147;SDS011;29810;55.848;37.368;2023-02-03T15:00:56;19.65;;;13.15;;
44147;SDS011;29810;55.848;37.368;2023-02-03T15:08:51;19.62;;;12.73;;
44147;SDS011;29810;55.848;37.368;2023-02-03T15:11:55;20.27;;;13.40;;
44147;SDS011;29810;55.848;37.368;2023-02-03T15:15:18;19.58;;;13.30;;
44147;SDS011;29810;55.848;37.368;2023-02-03T15:18:28;21.33;;;13.88;;
44147;SDS011;29810;55.848;37.368;2023-02-03T15:21:30;20.52;;;13.52;;
44147;SDS011;29810;55.848;37.368;2023-02-03T15:24:35;21.50;;;14.27;;
44147;SDS011;29810;55.848;37.368;2023-02-03T15:27:41;23.00;;;14.95;;
44147;SDS011;29810;55.848;37.368;2023-02-03T15:30:43;23.90;;;14.52;;
44147;SDS011;29810;55.848;37.368;2023-02-03T15:33:46;22.70;;;15.35;;
44147;SDS011;29810;55.848;37.368;2023-02-03T15:36:51;22.67;;;15.23;;
44147;SDS011;29810;55.848;37.368;2023-02-03T15:43:25;20.50;;;14.90;;
44147;SDS011;29810;55.848;37.368;2023-02-03T15:46:33;21.80;;;15.07;;
44147;SDS011;29810;55.848;37.368;2023-02-03T15:49:40;23.83;;;15.63;;
44147;SDS011;29810;55.848;37.368;2023-02-03T15:53:38;18.67;;;14.23;;
44147;SDS011;29810;55.848;37.368;2023-02-03T15:57:01;23.77;;;15.07;;
44147;SDS011;29810;55.848;37.368;2023-02-03T16:00:08;24.55;;;14.60;;
44147;SDS011;29810;55.848;37.368;2023-02-03T16:03:16;20.27;;;13.68;;
44147;SDS011;29810;55.848;37.368;2023-02-03T16:06:31;20.00;;;14.20;;
44147;SDS011;29810;55.848;37.368;2023-02-03T16:09:45;20.33;;;13.82;;
44147;SDS011;29810;55.848;37.368;2023-02-03T16:12:47;19.90;;;13.62;;
44147;SDS011;29810;55.848;37.368;2023-02-03T16:19:21;23.40;;;12.80;;
44147;SDS011;29810;55.848;37.368;2023-02-03T16:22:28;19.27;;;12.63;;
44147;SDS011;29810;55.848;37.368;2023-02-03T16:25:32;19.25;;;13.30;;
44147;SDS011;29810;55.848;37.368;2023-02-03T16:28:35;17.90;;;13.00;;
44147;SDS011;29810;55.848;37.368;2023-02-03T16:31:56;18.02;;;12.55;;
44147;SDS011;29810;55.848;37.368;2023-02-03T16:35:17;16.90;;;11.77;;
44147;SDS011;29810;55.848;37.368;2023-02-03T16:38:42;15.90;;;11.77;;
44147;SDS011;29810;55.848;37.368;2023-02-03T16:42:19;18.15;;;11.70;;
44147;SDS011;29810;55.848;37.368;2023-02-03T16:45:40;15.95;;;11.95;;
44147;SDS011;29810;55.848;37.368;2023-02-03T16:49:00;18.00;;;12.37;;
44147;SDS011;29810;55.848;37.368;2023-02-03T16:52:21;16.48;;;10.75;;
44147;SDS011;29810;55.848;37.368;2023-02-03T16:55:22;17.30;;;11.07;;
44147;SDS011;29810;55.848;37.368;2023-02-03T16:58:24;13.62;;;9.40;;
44147;SDS011;29810;55.848;37.368;2023-02-03T17:01:25;12.65;;;8.98;;
44147;SDS011;29810;55.848;37.368;2023-02-03T17:04:27;10.30;;;7.68;;
44147;SDS011;29810;55.848;37.368;2023-02-03T17:07:29;9.40;;;6.62;;
44147;SDS011;29810;55.848;37.368;2023-02-03T17:10:32;8.35;;;5.70;;
44147;SDS011;29810;55.848;37.368;2023-02-03T17:13:35;9.15;;;6.10;;
44147;SDS011;29810;55.848;37.368;2023-02-03T17:16:36;8.00;;;6.10;;
44147;SDS011;29810;55.848;37.368;2023-02-03T17:19:38;10.38;;;6.20;;
44147;SDS011;29810;55.848;37.368;2023-02-03T17:22:39;9.88;;;6.30;;
44147;SDS011;29810;55.848;37.368;2023-02-03T17:25:44;8.63;;;6.85;;
44147;SDS011;29810;55.848;37.368;2023-02-03T17:28:47;8.95;;;6.57;;
44147;SDS011;29810;55.848;37.368;2023-02-03T17:31:49;9.55;;;7.10;;
44147;SDS011;29810;55.848;37.368;2023-02-03T17:34:50;12.48;;;7.60;;
44147;SDS011;29810;55.848;37.368;2023-02-03T17:37:52;12.15;;;8.30;;
44147;SDS011;29810;55.848;37.368;2023-02-03T17:40:54;10.82;;;7.62;;
44147;SDS011;29810;55.848;37.368;2023-02-03T17:43:57;14.30;;;8.43;;
44147;SDS011;29810;55.848;37.368;2023-02-03T17:46:59;10.27;;;7.63;;
44147;SDS011;29810;55.848;37.368;2023-02-03T17:50:01;11.43;;;7.78;;
44147;SDS011;29810;55.848;37.368;2023-02-03T17:53:04;10.90;;;7.80;;
44147;SDS011;29810;55.848;37.368;2023-02-03T17:56:07;9.95;;;8.20;;
44147;SDS011;29810;55.848;37.368;2023-02-03T17:59:14;12.00;;;7.05;;
44147;SDS011;29810;55.848;37.368;2023-02-03T18:02:16;9.70;;;7.28;;
44147;SDS011;29810;55.848;37.368;2023-02-03T18:05:19;9.63;;;6.93;;
44147;SDS011;29810;55.848;37.368;2023-02-03T18:08:20;10.32;;;6.97;;
44147;SDS011;29810;55.848;37.368;2023-02-03T18:11:22;10.63;;;7.22;;
44147;SDS011;29810;55.848;37.368;2023-02-03T18:14:24;10.50;;;7.28;;
44147;SDS011;29810;55.848;37.368;2023-02-03T18:17:26;8.63;;;6.25;;
44147;SDS011;29810;55.848;37.368;2023-02-03T18:20:27;8.05;;;6.20;;
44147;SDS011;29810;55.848;37.368;2023-02-03T18:23:29;7.22;;;5.75;;
44147;SDS011;29810;55.848;37.368;2023-02-03T18:26:34;8.80;;;5.65;;
44147;SDS011;29810;55.848;37.368;2023-02-03T18:29:45;9.05;;;5.32;;
44147;SDS011;29810;55.848;37.368;2023-02-03T18:32:51;10.18;;;5.43;;
44147;SDS011;29810;55.848;37.368;2023-02-03T18:35:53;9.35;;;5.72;;
44147;SDS011;29810;55.848;37.368;2023-02-03T18:38:56;14.80;;;6.37;;
44147;SDS011;29810;55.848;37.368;2023-02-03T18:41:58;9.48;;;6.30;;
44147;SDS011;29810;55.848;37.368;2023-02-03T18:45:02;10.15;;;6.87;;
44147;SDS011;29810;55.848;37.368;2023-02-03T18:48:06;11.88;;;7.12;;
44147;SDS011;29810;55.848;37.368;2023-02-03T18:51:08;10.98;;;7.65;;
44147;SDS011;29810;55.848;37.368;2023-02-03T18:54:12;12.65;;;7.78;;
44147;SDS011;29810;55.848;37.368;2023-02-03T18:57:13;12.77;;;8.02;;
44147;SDS011;29810;55.848;37.368;2023-02-03T19:00:16;12.93;;;8.27;;
44147;SDS011;29810;55.848;37.368;2023-02-03T19:03:17;9.70;;;7.45;;
44147;SDS011;29810;55.848;37.368;2023-02-03T19:06:22;9.80;;;7.30;;
44147;SDS011;29810;55.848;37.368;2023-02-03T19:09:24;10.45;;;6.45;;
44147;SDS011;29810;55.848;37.368;2023-02-03T19:12:26;9.50;;;7.00;;
44147;SDS011;29810;55.848;37.368;2023-02-03T19:15:27;9.02;;;6.43;;
44147;SDS011;29810;55.848;37.368;2023-02-03T19:18:29;8.98;;;6.80;;
44147;SDS011;29810;55.848;37.368;2023-02-03T19:21:32;10.00;;;6.82;;
44147;SDS011;29810;55.848;37.368;2023-02-03T19:24:33;9.75;;;6.62;;
44147;SDS011;29810;55.848;37.368;2023-02-03T19:27:35;11.07;;;7.65;;
44147;SDS011;29810;55.848;37.368;2023-02-03T19:30:36;10.10;;;7.53;;
44147;SDS011;29810;55.848;37.368;2023-02-03T19:33:38;9.85;;;6.97;;
44147;SDS011;29810;55.848;37.368;2023-02-03T19:36:39;10.52;;;6.87;;
44147;SDS011;29810;55.848;37.368;2023-02-03T19:39:41;9.90;;;6.68;;
44147;SDS011;29810;55.848;37.368;2023-02-03T19:42:45;9.80;;;7.00;;
44147;SDS011;29810;55.848;37.368;2023-02-03T19:45:46;12.27;;;7.15;;
44147;SDS011;29810;55.848;37.368;2023-02-03T19:48:48;10.48;;;6.97;;
44147;SDS011;29810;55.848;37.368;2023-02-03T19:51:49;9.95;;;7.35;;
44147;SDS011;29810;55.848;37.368;2023-02-03T19:54:52;15.43;;;7.03;;
44147;SDS011;29810;55.848;37.368;2023-02-03T19:57:55;11.30;;;7.20;;
44147;SDS011;29810;55.848;37.368;2023-02-03T20:00:59;11.60;;;7.12;;
44147;SDS011;29810;55.848;37.368;2023-02-03T20:04:01;11.65;;;7.25;;
44147;SDS011;29810;55.848;37.368;2023-02-03T20:07:03;9.93;;;6.65;;
44147;SDS011;29810;55.848;37.368;2023-02-03T20:10:05;9.13;;;6.65;;
44147;SDS011;29810;55.848;37.368;2023-02-03T20:13:07;9.05;;;6.70;;
44147;SDS011;29810;55.848;37.368;2023-02-03T20:16:10;8.52;;;6.50;;
44147;SDS011;29810;55.848;37.368;2023-02-03T20:19:11;8.75;;;6.55;;
44147;SDS011;29810;55.848;37.368;2023-02-03T20:22:13;9.38;;;6.43;;
44147;SDS011;29810;55.848;37.368;2023-02-03T20:25:15;9.77;;;7.07;;